createdAt,value
2019-02-16T08:20:49.882Z,97.5
2019-02-16T08:22:50.829Z,96.8
2019-02-16T08:24:50.009Z,96.1
2019-02-16T08:26:50.153Z,78
2019-02-16T08:28:50.442Z,78
2019-02-16T08:30:50.435Z,78
2019-02-16T08:32:50.372Z,78
2019-02-16T08:34:50.398Z,78
2019-02-16T08:36:50.481Z,78
2019-02-16T08:38:50.460Z,78
2019-02-16T08:40:50.455Z,78
2019-02-16T08:42:50.578Z,78
2019-02-16T08:44:50.556Z,77
2019-02-16T08:46:50.679Z,78
2019-02-16T08:48:50.493Z,78
2019-02-16T08:50:50.571Z,78
2019-02-16T08:52:50.500Z,78
2019-02-16T08:54:50.078Z,77
2019-02-16T08:56:50.163Z,77
2019-02-16T08:58:50.167Z,77
2019-02-16T09:00:50.136Z,77
2019-02-16T09:02:50.099Z,77
2019-02-16T09:04:50.855Z,77
2019-02-16T09:06:50.219Z,77
2019-02-16T09:08:50.129Z,77
2019-02-16T09:10:50.123Z,77
2019-02-16T09:12:50.106Z,77
2019-02-16T09:14:50.020Z,77
2019-02-16T09:16:50.008Z,76
2019-02-16T09:18:49.941Z,76
2019-02-16T09:20:50.102Z,76
2019-02-16T09:22:50.489Z,76
2019-02-16T09:24:50.518Z,76
2019-02-16T09:26:50.634Z,76
2019-02-16T09:28:50.326Z,76
2019-02-16T09:30:50.589Z,76
2019-02-16T09:32:50.789Z,76
2019-02-16T09:34:50.601Z,76
2019-02-16T09:36:50.187Z,76
2019-02-16T09:38:50.045Z,75
2019-02-16T09:40:50.045Z,75
2019-02-16T09:42:49.916Z,75
2019-02-16T09:44:49.918Z,75
2019-02-16T09:46:50.128Z,74
2019-02-16T09:48:50.050Z,74
2019-02-16T09:50:49.991Z,74
2019-02-16T09:52:50.065Z,73
2019-02-16T09:54:50.257Z,73
2019-02-16T09:56:50.166Z,73
2019-02-16T09:58:50.004Z,73
2019-02-16T10:00:49.866Z,73
2019-02-16T10:02:49.955Z,72
2019-02-16T10:04:50.699Z,72
2019-02-16T10:06:50.364Z,72
2019-02-16T10:08:50.186Z,72
2019-02-16T10:10:50.002Z,72
2019-02-16T10:12:50.328Z,72
2019-02-16T10:14:50.225Z,72
2019-02-16T10:16:50.256Z,72
2019-02-16T10:18:50.128Z,72
2019-02-16T10:20:49.895Z,71
2019-02-16T10:22:50.057Z,71
2019-02-16T10:24:50.085Z,71
2019-02-16T10:26:50.124Z,71
2019-02-16T10:28:50.252Z,71
2019-02-16T10:30:50.699Z,71
2019-02-16T10:32:50.639Z,71
2019-02-16T10:34:49.836Z,70
2019-02-16T10:36:49.931Z,70
2019-02-16T10:38:50.642Z,70
2019-02-16T10:40:50.197Z,70
2019-02-16T10:42:50.014Z,68
2019-02-16T10:44:49.950Z,68
2019-02-16T10:46:50.003Z,68
2019-02-16T10:48:49.880Z,68
2019-02-16T10:50:50.493Z,68
2019-02-16T10:52:50.411Z,68
2019-02-16T10:54:50.438Z,68
2019-02-16T10:56:52.602Z,68
2019-02-16T10:58:50.512Z,67
2019-02-16T11:00:50.389Z,66
2019-02-16T11:02:50.191Z,65
2019-02-16T11:04:50.035Z,65
2019-02-16T11:06:49.996Z,65
2019-02-16T11:08:49.852Z,64
2019-02-16T11:10:49.879Z,64
2019-02-16T11:12:49.833Z,64
2019-02-16T11:14:49.934Z,64
2019-02-16T11:16:50.167Z,64
2019-02-16T11:18:50.251Z,64
2019-02-16T11:20:50.013Z,62
2019-02-16T11:22:49.831Z,62
2019-02-16T11:24:50.685Z,61
2019-02-16T11:26:50.001Z,62
2019-02-16T11:28:50.223Z,62
2019-02-16T11:30:50.258Z,62
2019-02-16T11:32:50.163Z,62
2019-02-16T11:34:50.755Z,61
2019-02-16T11:36:50.829Z,61
2019-02-16T11:38:49.839Z,61
2019-02-16T11:40:50.786Z,61
2019-02-16T11:42:50.679Z,61
2019-02-16T11:44:50.750Z,61
2019-02-16T11:46:50.580Z,60
2019-02-16T11:48:50.579Z,60
2019-02-16T11:50:50.719Z,59
2019-02-16T11:52:50.934Z,59
2019-02-16T11:54:50.598Z,58
2019-02-16T11:56:50.849Z,57
2019-02-16T11:58:50.154Z,57
2019-02-16T12:00:50.257Z,57
2019-02-16T12:02:50.689Z,57
2019-02-16T12:04:50.820Z,58
2019-02-16T12:06:50.279Z,58
2019-02-16T12:08:50.222Z,58
2019-02-16T12:10:50.457Z,58
2019-02-16T12:12:50.640Z,58
2019-02-16T12:14:50.119Z,58
2019-02-16T12:16:50.318Z,58
2019-02-16T12:18:50.846Z,58
2019-02-16T12:20:50.166Z,57
2019-02-16T12:22:50.533Z,57
2019-02-16T12:25:06.841Z,57
2019-02-16T12:26:50.508Z,56
2019-02-16T12:28:50.626Z,56
2019-02-16T12:30:50.881Z,56
2019-02-16T12:32:50.162Z,56
2019-02-16T12:34:50.183Z,55
2019-02-16T12:36:50.316Z,55
2019-02-16T12:38:50.368Z,55
2019-02-16T12:40:50.349Z,56
2019-02-16T12:42:50.527Z,56
2019-02-16T12:44:50.664Z,56
2019-02-16T12:46:50.872Z,55
2019-02-16T12:48:50.203Z,55
2019-02-16T12:50:50.283Z,55
2019-02-16T12:52:50.511Z,55
2019-02-16T12:54:50.607Z,54
2019-02-16T12:56:50.888Z,54
2019-02-16T12:58:50.100Z,54
2019-02-16T13:00:50.222Z,53
2019-02-16T13:02:50.437Z,54
2019-02-16T13:04:50.198Z,53
2019-02-16T13:06:50.526Z,53
2019-02-16T13:08:50.754Z,53
2019-02-16T13:10:51.009Z,54
2019-02-16T13:12:50.333Z,53
2019-02-16T13:14:50.503Z,54
2019-02-16T13:16:50.882Z,54
2019-02-16T13:18:50.085Z,53
2019-02-16T13:20:50.121Z,53
2019-02-16T13:22:50.139Z,52
2019-02-16T13:24:50.249Z,53
2019-02-16T13:26:50.511Z,53
2019-02-16T13:28:50.376Z,53
2019-02-16T13:30:50.526Z,53
2019-02-16T13:32:50.793Z,53
2019-02-16T13:34:50.715Z,53
2019-02-16T13:36:50.977Z,53
2019-02-16T13:38:50.387Z,53
2019-02-16T13:40:50.567Z,52
2019-02-16T13:42:50.849Z,52
2019-02-16T13:44:50.061Z,52
2019-02-16T13:46:50.382Z,52
2019-02-16T13:48:50.530Z,52
2019-02-16T13:50:50.601Z,52
2019-02-16T13:52:50.835Z,52
2019-02-16T13:54:50.647Z,52
2019-02-16T13:56:50.831Z,52
2019-02-16T13:58:50.366Z,51
2019-02-16T14:00:51.500Z,50
2019-02-16T14:02:50.508Z,51
2019-02-16T14:04:50.736Z,51
2019-02-16T14:06:50.164Z,51
2019-02-16T14:08:50.384Z,51
2019-02-16T14:10:50.598Z,52
2019-02-16T14:12:50.251Z,52
2019-02-16T14:14:50.597Z,51
2019-02-16T14:16:50.765Z,51
2019-02-16T14:18:50.029Z,50
2019-02-16T14:20:51.031Z,50
2019-02-16T14:22:50.202Z,50
2019-02-16T14:24:50.312Z,50
2019-02-16T14:26:50.486Z,50
2019-02-16T14:28:50.544Z,51
2019-02-16T14:30:50.726Z,51
2019-02-16T14:32:50.836Z,50
2019-02-16T14:34:50.879Z,50
2019-02-16T14:36:50.356Z,50
2019-02-16T14:38:50.380Z,51
2019-02-16T14:40:50.360Z,51
2019-02-16T14:42:50.356Z,51
2019-02-16T14:44:50.419Z,52
2019-02-16T14:46:50.764Z,50
2019-02-16T14:48:50.968Z,50
2019-02-16T14:50:50.233Z,50
2019-02-16T14:52:50.407Z,51
2019-02-16T14:54:50.429Z,51
2019-02-16T14:56:50.643Z,51
2019-02-16T14:58:50.775Z,51
2019-02-16T15:00:50.028Z,51
2019-02-16T15:02:50.205Z,51
2019-02-16T15:04:50.246Z,51
2019-02-16T15:06:50.477Z,51
2019-02-16T15:08:50.413Z,51
2019-02-16T15:10:50.523Z,52
2019-02-16T15:12:50.871Z,52
2019-02-16T15:14:50.950Z,52
2019-02-16T15:16:50.287Z,52
2019-02-16T15:18:50.484Z,52
2019-02-16T15:20:50.518Z,52
2019-02-16T15:22:50.744Z,52
2019-02-16T15:24:50.960Z,52
2019-02-16T15:26:50.198Z,52
2019-02-16T15:28:50.121Z,52
2019-02-16T15:30:50.208Z,49.8
2019-02-16T15:32:50.082Z,49.8
2019-02-16T15:34:49.906Z,51.3
2019-02-16T15:36:50.324Z,54.8
2019-02-16T15:38:50.357Z,54.8
2019-02-16T15:40:50.444Z,56.5
2019-02-16T15:42:50.608Z,56.5
2019-02-16T15:44:50.720Z,52.6
2019-02-16T15:46:49.842Z,53.7
2019-02-16T15:48:50.283Z,55.5
2019-02-16T15:50:50.576Z,58.0
2019-02-16T15:52:50.071Z,59.4
2019-02-16T15:54:50.191Z,59.4
2019-02-16T15:56:51.622Z,61.1
2019-02-16T15:58:51.063Z,62.2
2019-02-16T16:00:50.575Z,63.4
2019-02-16T16:02:50.845Z,64.7
2019-02-16T16:04:50.519Z,63.5
2019-02-16T16:06:50.810Z,65.2
2019-02-16T16:08:50.058Z,66.6
2019-02-16T16:10:50.301Z,69.2
2019-02-16T16:12:50.608Z,68.1
2019-02-16T16:14:50.330Z,70.0
2019-02-16T16:16:50.375Z,68.5
2019-02-16T16:18:50.385Z,70.5
2019-02-16T16:20:50.680Z,71.6
2019-02-16T16:22:49.782Z,72.4
2019-02-16T16:24:50.596Z,71.9
2019-02-16T16:26:49.794Z,74.3
2019-02-16T16:28:49.791Z,75.1
2019-02-16T16:30:49.833Z,74.8
2019-02-16T16:32:49.956Z,74.0
2019-02-16T16:34:50.296Z,76.1
2019-02-16T16:36:50.486Z,77.0
2019-02-16T16:38:50.488Z,78.1
2019-02-16T16:40:50.307Z,80.0
2019-02-16T16:42:50.394Z,81.0
2019-02-16T16:44:50.410Z,79.5
2019-02-16T16:46:50.532Z,80.1
2019-02-16T16:48:50.561Z,81.5
2019-02-16T16:50:50.448Z,82.1
2019-02-16T16:52:50.513Z,81.5
2019-02-16T16:54:50.468Z,80.9
2019-02-16T16:56:50.591Z,83.6
2019-02-16T16:58:50.647Z,83.3
2019-02-16T17:00:50.646Z,84.1
2019-02-16T17:02:50.480Z,83.6
2019-02-16T17:04:49.928Z,83.3
2019-02-16T17:06:50.118Z,82.6
2019-02-16T17:08:50.097Z,86.2
2019-02-16T17:10:50.648Z,86.4
2019-02-16T17:12:50.767Z,86.3
2019-02-16T17:14:49.847Z,86.0
2019-02-16T17:16:50.023Z,87.3
2019-02-16T17:18:50.093Z,87.3
2019-02-16T17:20:50.045Z,88.7
2019-02-16T17:22:50.058Z,89.4
2019-02-16T17:24:50.194Z,89.3
2019-02-16T17:26:50.586Z,89.5
2019-02-16T17:28:50.648Z,89.1
2019-02-16T17:30:50.005Z,89.6
2019-02-16T17:32:50.168Z,90.1
2019-02-16T17:34:50.514Z,90.3
2019-02-16T17:36:50.661Z,89.7
2019-02-16T17:38:49.781Z,89.9
2019-02-16T17:40:50.739Z,89.9
2019-02-16T17:42:49.811Z,92.2
2019-02-16T17:44:49.766Z,92.3
2019-02-16T17:46:49.897Z,92.2
2019-02-16T17:48:50.034Z,92.2
2019-02-16T17:50:49.987Z,92.2
2019-02-16T17:52:50.052Z,92.5
2019-02-16T17:54:50.587Z,92.6
2019-02-16T17:56:50.638Z,92.8
2019-02-16T17:58:50.050Z,92.1
2019-02-16T18:00:50.049Z,92.9
2019-02-16T18:02:50.159Z,92.3
2019-02-16T18:04:50.591Z,92.0
2019-02-16T18:06:50.711Z,92.9
2019-02-16T18:08:50.353Z,93.3
2019-02-16T18:10:50.084Z,92.7
2019-02-16T18:12:50.117Z,92.8
2019-02-16T18:14:51.642Z,92.6
2019-02-16T18:16:50.649Z,93.2
2019-02-16T18:18:50.766Z,94.4
2019-02-16T18:20:49.862Z,94.8
2019-02-16T18:22:49.915Z,95.2
2019-02-16T18:24:49.949Z,95.3
2019-02-16T18:26:57.260Z,95.5
2019-02-16T18:28:58.013Z,95.5
2019-02-16T18:30:49.919Z,95.6
2019-02-16T18:32:49.990Z,95.3
2019-02-16T18:34:49.829Z,96.5
2019-02-16T18:36:49.984Z,97.6
2019-02-16T18:38:50.727Z,96.9
2019-02-16T18:40:49.998Z,96.9
2019-02-16T18:42:50.029Z,96.3
2019-02-16T18:44:50.141Z,96.9
2019-02-16T18:46:50.528Z,97.0
2019-02-16T18:48:50.516Z,96.9
2019-02-16T18:50:50.569Z,96.5
2019-02-16T18:52:50.688Z,96.8
2019-02-16T18:54:49.851Z,97.9
2019-02-16T18:56:49.947Z,98.2
2019-02-16T18:58:49.968Z,98.2
2019-02-16T19:00:50.604Z,98.4
2019-02-16T19:02:50.687Z,98.4
2019-02-16T19:04:50.407Z,99.1
2019-02-16T19:06:50.744Z,100.0
2019-02-16T19:08:49.811Z,100.0
2019-02-16T19:10:49.910Z,100.0
2019-02-16T19:12:49.964Z,100.0
2019-02-16T19:14:49.951Z,100.0
2019-02-16T19:16:49.828Z,100.0
2019-02-16T19:18:49.884Z,100.0
2019-02-16T19:20:50.600Z,100.0
2019-02-16T19:22:50.597Z,100.0
2019-02-16T19:24:50.210Z,100.0
2019-02-16T19:26:50.262Z,100.0
2019-02-16T19:28:50.298Z,100.0
2019-02-16T19:30:49.961Z,100.0
2019-02-16T19:32:49.997Z,100.0
2019-02-16T19:34:50.052Z,100.0
2019-02-16T19:36:50.869Z,100.0
2019-02-16T19:38:49.865Z,100.0
2019-02-16T19:40:49.878Z,100.0
2019-02-16T19:42:50.614Z,100.0
2019-02-16T19:44:50.819Z,100.0
2019-02-16T19:46:49.799Z,100.0
2019-02-16T19:48:49.880Z,100.0
2019-02-16T19:50:49.899Z,100.0
2019-02-16T19:52:50.103Z,100.0
2019-02-16T19:54:50.171Z,100.0
2019-02-16T19:56:50.421Z,100.0
2019-02-16T19:58:50.443Z,100.0
2019-02-16T20:00:50.329Z,100.0
2019-02-16T20:02:50.371Z,100.0
2019-02-16T20:04:50.866Z,100.0
2019-02-16T20:06:49.997Z,100.0
2019-02-16T20:08:50.056Z,100.0
2019-02-16T20:10:50.055Z,100.0
2019-02-16T20:12:50.460Z,100.0
2019-02-16T20:14:50.510Z,100.0
2019-02-16T20:16:50.666Z,100.0
2019-02-16T20:18:49.783Z,100.0
2019-02-16T20:20:50.798Z,100.0
2019-02-16T20:22:49.930Z,100.0
